sensor_id;sensor_type;location;lat;lon;timestamp;pressure;altitude;pressure_sealevel;temperature;humidity
36222;BME280;22266;52.340;4.962;2023-04-20T00:02:07;102477.00;;;10.00;45.72
36222;BME280;22266;52.340;4.962;2023-04-20T00:04:34;102463.88;;;9.97;46.19
36222;BME280;22266;52.340;4.962;2023-04-20T00:07:01;102461.75;;;10.01;46.18
36222;BME280;22266;52.340;4.962;2023-04-20T00:09:28;102461.03;;;9.99;45.81
36222;BME280;22266;52.340;4.962;2023-04-20T00:11:54;102455.38;;;9.92;45.34
36222;BME280;22266;52.340;4.962;2023-04-20T00:14:21;102446.25;;;9.85;45.63
36222;BME280;22266;52.340;4.962;2023-04-20T00:16:48;102448.09;;;9.84;46.13
36222;BME280;22266;52.340;4.962;2023-04-20T00:19:14;102437.00;;;9.87;46.30
36222;BME280;22266;52.340;4.962;2023-04-20T00:21:41;102440.41;;;9.89;46.42
36222;BME280;22266;52.340;4.962;2023-04-20T00:24:08;102444.78;;;9.90;47.37
36222;BME280;22266;52.340;4.962;2023-04-20T00:26:34;102438.56;;;9.90;47.80
36222;BME280;22266;52.340;4.962;2023-04-20T00:29:01;102434.94;;;9.81;47.95
36222;BME280;22266;52.340;4.962;2023-04-20T00:31:30;102425.19;;;9.80;49.05
36222;BME280;22266;52.340;4.962;2023-04-20T00:33:57;102428.41;;;9.84;48.60
36222;BME280;22266;52.340;4.962;2023-04-20T00:36:23;102430.69;;;9.79;48.61
36222;BME280;22266;52.340;4.962;2023-04-20T00:38:50;102422.78;;;9.77;49.52
36222;BME280;22266;52.340;4.962;2023-04-20T00:41:16;102414.84;;;9.76;50.16
36222;BME280;22266;52.340;4.962;2023-04-20T00:43:52;102416.88;;;9.74;50.26
36222;BME280;22266;52.340;4.962;2023-04-20T00:46:20;102403.72;;;9.71;50.32
36222;BME280;22266;52.340;4.962;2023-04-20T00:48:50;102401.03;;;9.71;50.18
36222;BME280;22266;52.340;4.962;2023-04-20T00:51:20;102406.78;;;9.76;49.92
36222;BME280;22266;52.340;4.962;2023-04-20T00:53:47;102388.97;;;9.75;49.78
36222;BME280;22266;52.340;4.962;2023-04-20T00:56:14;102383.44;;;9.76;49.88
36222;BME280;22266;52.340;4.962;2023-04-20T00:58:42;102382.91;;;9.73;49.63
36222;BME280;22266;52.340;4.962;2023-04-20T01:01:09;102385.91;;;9.70;50.14
36222;BME280;22266;52.340;4.962;2023-04-20T01:03:40;102383.75;;;9.73;50.29
36222;BME280;22266;52.340;4.962;2023-04-20T01:06:07;102373.84;;;9.74;50.30
36222;BME280;22266;52.340;4.962;2023-04-20T01:08:34;102372.16;;;9.73;50.77
36222;BME280;22266;52.340;4.962;2023-04-20T01:11:02;102367.63;;;9.73;51.30
36222;BME280;22266;52.340;4.962;2023-04-20T01:13:29;102362.91;;;9.75;52.22
36222;BME280;22266;52.340;4.962;2023-04-20T01:15:57;102366.53;;;9.84;52.50
36222;BME280;22266;52.340;4.962;2023-04-20T01:18:25;102350.94;;;9.87;52.17
36222;BME280;22266;52.340;4.962;2023-04-20T01:20:52;102350.28;;;9.85;51.73
36222;BME280;22266;52.340;4.962;2023-04-20T01:23:19;102349.88;;;9.80;52.52
36222;BME280;22266;52.340;4.962;2023-04-20T01:25:45;102344.50;;;9.80;53.31
36222;BME280;22266;52.340;4.962;2023-04-20T01:28:13;102349.72;;;9.82;53.57
36222;BME280;22266;52.340;4.962;2023-04-20T01:30:40;102334.88;;;9.78;53.95
36222;BME280;22266;52.340;4.962;2023-04-20T01:33:06;102336.88;;;9.76;54.47
36222;BME280;22266;52.340;4.962;2023-04-20T01:35:33;102331.56;;;9.66;54.78
36222;BME280;22266;52.340;4.962;2023-04-20T01:38:00;102333.72;;;9.62;54.94
36222;BME280;22266;52.340;4.962;2023-04-20T01:40:27;102326.94;;;9.58;55.29
36222;BME280;22266;52.340;4.962;2023-04-20T01:42:53;102324.44;;;9.57;55.49
36222;BME280;22266;52.340;4.962;2023-04-20T01:45:21;102322.13;;;9.62;55.71
36222;BME280;22266;52.340;4.962;2023-04-20T01:47:47;102328.03;;;9.65;55.62
36222;BME280;22266;52.340;4.962;2023-04-20T01:50:14;102315.44;;;9.66;55.96
36222;BME280;22266;52.340;4.962;2023-04-20T01:52:40;102313.06;;;9.63;56.01
36222;BME280;22266;52.340;4.962;2023-04-20T01:55:08;102318.44;;;9.63;56.41
36222;BME280;22266;52.340;4.962;2023-04-20T01:57:36;102316.34;;;9.57;56.39
36222;BME280;22266;52.340;4.962;2023-04-20T02:00:03;102309.72;;;9.51;56.74
36222;BME280;22266;52.340;4.962;2023-04-20T02:02:39;102307.09;;;9.41;56.68
36222;BME280;22266;52.340;4.962;2023-04-20T02:05:06;102298.66;;;9.36;56.92
36222;BME280;22266;52.340;4.962;2023-04-20T02:07:33;102295.56;;;9.31;57.39
36222;BME280;22266;52.340;4.962;2023-04-20T02:09:59;102293.88;;;9.30;57.51
36222;BME280;22266;52.340;4.962;2023-04-20T02:12:26;102292.94;;;9.22;57.31
36222;BME280;22266;52.340;4.962;2023-04-20T02:14:52;102283.31;;;9.19;57.71
36222;BME280;22266;52.340;4.962;2023-04-20T02:17:20;102282.19;;;9.22;58.47
36222;BME280;22266;52.340;4.962;2023-04-20T02:19:46;102277.66;;;9.22;58.06
36222;BME280;22266;52.340;4.962;2023-04-20T02:22:13;102269.22;;;9.17;58.29
36222;BME280;22266;52.340;4.962;2023-04-20T02:24:39;102263.69;;;9.19;58.91
36222;BME280;22266;52.340;4.962;2023-04-20T02:27:06;102268.75;;;9.22;58.45
36222;BME280;22266;52.340;4.962;2023-04-20T02:29:33;102265.91;;;9.23;58.47
36222;BME280;22266;52.340;4.962;2023-04-20T02:31:59;102262.25;;;9.24;59.45
36222;BME280;22266;52.340;4.962;2023-04-20T02:34:25;102261.41;;;9.24;58.62
36222;BME280;22266;52.340;4.962;2023-04-20T02:36:55;102259.41;;;9.26;58.76
36222;BME280;22266;52.340;4.962;2023-04-20T02:39:21;102254.19;;;9.24;60.31
36222;BME280;22266;52.340;4.962;2023-04-20T02:41:48;102250.66;;;9.24;59.50
36222;BME280;22266;52.340;4.962;2023-04-20T02:44:15;102246.97;;;9.25;60.11
36222;BME280;22266;52.340;4.962;2023-04-20T02:46:41;102234.66;;;9.22;59.60
36222;BME280;22266;52.340;4.962;2023-04-20T02:49:08;102241.59;;;9.25;60.07
36222;BME280;22266;52.340;4.962;2023-04-20T02:51:40;102236.91;;;9.27;60.33
36222;BME280;22266;52.340;4.962;2023-04-20T02:54:06;102227.00;;;9.27;60.26
36222;BME280;22266;52.340;4.962;2023-04-20T02:56:34;102233.91;;;9.30;60.73
36222;BME280;22266;52.340;4.962;2023-04-20T02:59:04;102223.72;;;9.33;60.37
36222;BME280;22266;52.340;4.962;2023-04-20T03:01:51;102218.34;;;9.33;60.60
36222;BME280;22266;52.340;4.962;2023-04-20T03:04:20;102228.63;;;9.38;60.49
36222;BME280;22266;52.340;4.962;2023-04-20T03:06:58;102217.34;;;9.34;60.07
36222;BME280;22266;52.340;4.962;2023-04-20T03:09:28;102211.13;;;9.34;60.60
36222;BME280;22266;52.340;4.962;2023-04-20T03:12:20;102213.34;;;9.38;61.22
36222;BME280;22266;52.340;4.962;2023-04-20T03:14:59;102192.69;;;9.39;60.00
36222;BME280;22266;52.340;4.962;2023-04-20T03:17:46;102196.38;;;9.38;60.18
36222;BME280;22266;52.340;4.962;2023-04-20T03:20:13;102189.69;;;9.42;60.28
36222;BME280;22266;52.340;4.962;2023-04-20T03:22:40;102183.31;;;9.43;60.56
36222;BME280;22266;52.340;4.962;2023-04-20T03:25:07;102186.16;;;9.41;59.81
36222;BME280;22266;52.340;4.962;2023-04-20T03:28:00;102171.59;;;9.44;60.39
36222;BME280;22266;52.340;4.962;2023-04-20T03:30:28;102178.09;;;9.41;59.92
36222;BME280;22266;52.340;4.962;2023-04-20T03:33:09;102173.19;;;9.37;59.81
36222;BME280;22266;52.340;4.962;2023-04-20T03:35:37;102171.66;;;9.34;60.13
36222;BME280;22266;52.340;4.962;2023-04-20T03:38:04;102166.06;;;9.28;59.29
36222;BME280;22266;52.340;4.962;2023-04-20T03:40:31;102162.19;;;9.30;60.06
36222;BME280;22266;52.340;4.962;2023-04-20T03:42:58;102164.22;;;9.28;59.92
36222;BME280;22266;52.340;4.962;2023-04-20T03:45:26;102161.38;;;9.30;59.87
36222;BME280;22266;52.340;4.962;2023-04-20T03:47:52;102162.13;;;9.22;59.69
36222;BME280;22266;52.340;4.962;2023-04-20T03:50:20;102155.63;;;9.25;59.63
36222;BME280;22266;52.340;4.962;2023-04-20T03:52:47;102152.38;;;9.21;59.92
36222;BME280;22266;52.340;4.962;2023-04-20T03:55:14;102158.44;;;9.23;60.52
36222;BME280;22266;52.340;4.962;2023-04-20T03:57:46;102157.47;;;9.24;60.12
36222;BME280;22266;52.340;4.962;2023-04-20T04:00:13;102157.13;;;9.27;60.29
36222;BME280;22266;52.340;4.962;2023-04-20T04:02:45;102153.47;;;9.28;60.39
36222;BME280;22266;52.340;4.962;2023-04-20T04:05:17;102152.28;;;9.31;60.60
36222;BME280;22266;52.340;4.962;2023-04-20T04:07:47;102150.06;;;9.26;60.17
36222;BME280;22266;52.340;4.962;2023-04-20T04:10:14;102147.25;;;9.28;59.95
36222;BME280;22266;52.340;4.962;2023-04-20T04:12:41;102148.63;;;9.32;60.38
36222;BME280;22266;52.340;4.962;2023-04-20T04:15:08;102144.78;;;9.34;60.14
36222;BME280;22266;52.340;4.962;2023-04-20T04:17:42;102140.94;;;9.37;60.69
36222;BME280;22266;52.340;4.962;2023-04-20T04:20:09;102139.56;;;9.33;60.37
36222;BME280;22266;52.340;4.962;2023-04-20T04:22:37;102128.28;;;9.29;60.89
36222;BME280;22266;52.340;4.962;2023-04-20T04:25:26;102121.22;;;9.28;60.93
36222;BME280;22266;52.340;4.962;2023-04-20T04:27:53;102120.22;;;9.29;61.00
36222;BME280;22266;52.340;4.962;2023-04-20T04:30:21;102121.22;;;9.28;61.95
36222;BME280;22266;52.340;4.962;2023-04-20T04:32:47;102119.22;;;9.30;61.57
36222;BME280;22266;52.340;4.962;2023-04-20T04:35:15;102113.16;;;9.28;61.43
36222;BME280;22266;52.340;4.962;2023-04-20T04:37:41;102113.69;;;9.32;61.49
36222;BME280;22266;52.340;4.962;2023-04-20T04:40:08;102119.22;;;9.30;61.84
36222;BME280;22266;52.340;4.962;2023-04-20T04:42:36;102121.75;;;9.32;61.75
36222;BME280;22266;52.340;4.962;2023-04-20T04:45:05;102107.47;;;9.31;62.02
36222;BME280;22266;52.340;4.962;2023-04-20T04:47:35;102110.84;;;9.33;62.55
36222;BME280;22266;52.340;4.962;2023-04-20T04:50:03;102110.47;;;9.28;62.24
36222;BME280;22266;52.340;4.962;2023-04-20T04:52:32;102115.16;;;9.26;62.15
36222;BME280;22266;52.340;4.962;2023-04-20T04:54:58;102103.03;;;9.22;61.71
36222;BME280;22266;52.340;4.962;2023-04-20T04:57:25;102099.66;;;9.20;60.57
36222;BME280;22266;52.340;4.962;2023-04-20T04:59:51;102099.78;;;9.19;60.80
36222;BME280;22266;52.340;4.962;2023-04-20T05:02:18;102093.44;;;9.20;60.25
36222;BME280;22266;52.340;4.962;2023-04-20T05:04:45;102101.50;;;9.20;59.43
36222;BME280;22266;52.340;4.962;2023-04-20T05:07:12;102103.72;;;9.24;59.20
36222;BME280;22266;52.340;4.962;2023-04-20T05:09:42;102101.50;;;9.20;58.26
36222;BME280;22266;52.340;4.962;2023-04-20T05:12:08;102095.59;;;9.16;58.75
36222;BME280;22266;52.340;4.962;2023-04-20T05:14:35;102094.41;;;9.19;59.11
36222;BME280;22266;52.340;4.962;2023-04-20T05:17:02;102089.88;;;9.19;58.48
36222;BME280;22266;52.340;4.962;2023-04-20T05:19:28;102084.50;;;9.19;59.17
36222;BME280;22266;52.340;4.962;2023-04-20T05:21:55;102074.47;;;9.21;58.88
36222;BME280;22266;52.340;4.962;2023-04-20T05:24:21;102091.25;;;9.23;58.65
36222;BME280;22266;52.340;4.962;2023-04-20T05:26:48;102082.06;;;9.26;59.35
36222;BME280;22266;52.340;4.962;2023-04-20T05:29:14;102089.59;;;9.22;58.84
36222;BME280;22266;52.340;4.962;2023-04-20T05:31:42;102080.69;;;9.22;59.07
36222;BME280;22266;52.340;4.962;2023-04-20T05:34:08;102075.00;;;9.25;58.97
36222;BME280;22266;52.340;4.962;2023-04-20T05:36:35;102087.59;;;9.24;58.38
36222;BME280;22266;52.340;4.962;2023-04-20T05:39:02;102079.16;;;9.19;58.20
36222;BME280;22266;52.340;4.962;2023-04-20T05:41:28;102070.09;;;9.20;58.52
36222;BME280;22266;52.340;4.962;2023-04-20T05:43:55;102073.78;;;9.19;59.15
36222;BME280;22266;52.340;4.962;2023-04-20T05:46:22;102084.13;;;9.14;57.70
36222;BME280;22266;52.340;4.962;2023-04-20T05:48:49;102098.19;;;9.08;58.30
36222;BME280;22266;52.340;4.962;2023-04-20T05:51:15;102087.13;;;9.11;58.25
36222;BME280;22266;52.340;4.962;2023-04-20T05:53:42;102099.81;;;9.01;57.79
36222;BME280;22266;52.340;4.962;2023-04-20T05:56:08;102087.44;;;8.90;58.23
36222;BME280;22266;52.340;4.962;2023-04-20T05:58:35;102093.97;;;8.87;58.35
36222;BME280;22266;52.340;4.962;2023-04-20T06:01:03;102104.31;;;8.82;59.23
36222;BME280;22266;52.340;4.962;2023-04-20T06:03:30;102081.06;;;8.73;60.09
36222;BME280;22266;52.340;4.962;2023-04-20T06:05:57;102100.47;;;8.67;60.29
36222;BME280;22266;52.340;4.962;2023-04-20T06:08:23;102090.63;;;8.58;61.10
36222;BME280;22266;52.340;4.962;2023-04-20T06:10:53;102112.91;;;8.68;61.68
36222;BME280;22266;52.340;4.962;2023-04-20T06:13:21;102104.22;;;8.74;61.35
36222;BME280;22266;52.340;4.962;2023-04-20T06:15:48;102109.47;;;8.76;62.08
36222;BME280;22266;52.340;4.962;2023-04-20T06:18:14;102109.50;;;8.66;62.40
36222;BME280;22266;52.340;4.962;2023-04-20T06:20:44;102103.81;;;8.51;62.09
36222;BME280;22266;52.340;4.962;2023-04-20T06:23:11;102091.25;;;8.52;62.16
36222;BME280;22266;52.340;4.962;2023-04-20T06:25:38;102106.78;;;8.48;62.82
36222;BME280;22266;52.340;4.962;2023-04-20T06:28:04;102101.81;;;8.53;62.55
36222;BME280;22266;52.340;4.962;2023-04-20T06:30:34;102097.53;;;8.60;62.55
36222;BME280;22266;52.340;4.962;2023-04-20T06:33:01;102090.03;;;8.64;62.30
36222;BME280;22266;52.340;4.962;2023-04-20T06:35:28;102094.59;;;8.54;61.89
36222;BME280;22266;52.340;4.962;2023-04-20T06:37:55;102081.63;;;8.49;62.39
36222;BME280;22266;52.340;4.962;2023-04-20T06:40:26;102063.47;;;8.43;62.51
36222;BME280;22266;52.340;4.962;2023-04-20T06:42:52;102070.13;;;8.39;62.93
36222;BME280;22266;52.340;4.962;2023-04-20T06:45:19;102092.13;;;8.33;63.06
36222;BME280;22266;52.340;4.962;2023-04-20T06:47:45;102095.00;;;8.31;63.05
36222;BME280;22266;52.340;4.962;2023-04-20T06:50:12;102090.47;;;8.32;63.72
36222;BME280;22266;52.340;4.962;2023-04-20T06:52:39;102091.59;;;8.39;63.52
36222;BME280;22266;52.340;4.962;2023-04-20T06:55:06;102088.47;;;8.44;62.93
36222;BME280;22266;52.340;4.962;2023-04-20T06:57:33;102094.13;;;8.40;62.76
36222;BME280;22266;52.340;4.962;2023-04-20T07:00:00;102085.06;;;8.41;61.85
36222;BME280;22266;52.340;4.962;2023-04-20T07:02:27;102087.78;;;8.32;61.48
36222;BME280;22266;52.340;4.962;2023-04-20T07:04:59;102066.03;;;8.35;61.06
36222;BME280;22266;52.340;4.962;2023-04-20T07:07:26;102067.13;;;8.42;60.30
36222;BME280;22266;52.340;4.962;2023-04-20T07:09:52;102070.66;;;8.42;60.34
36222;BME280;22266;52.340;4.962;2023-04-20T07:12:19;102072.34;;;8.44;59.81
36222;BME280;22266;52.340;4.962;2023-04-20T07:14:45;102069.13;;;8.40;59.53
36222;BME280;22266;52.340;4.962;2023-04-20T07:17:11;102076.47;;;8.38;59.71
36222;BME280;22266;52.340;4.962;2023-04-20T07:19:38;102065.94;;;8.27;58.39
36222;BME280;22266;52.340;4.962;2023-04-20T07:22:04;102073.53;;;8.31;58.88
36222;BME280;22266;52.340;4.962;2023-04-20T07:24:31;102086.09;;;8.31;60.41
36222;BME280;22266;52.340;4.962;2023-04-20T07:26:57;102083.53;;;8.29;60.03
36222;BME280;22266;52.340;4.962;2023-04-20T07:29:23;102099.25;;;8.24;59.53
36222;BME280;22266;52.340;4.962;2023-04-20T07:31:50;102084.88;;;8.15;59.97
36222;BME280;22266;52.340;4.962;2023-04-20T07:34:16;102089.69;;;8.12;59.22
36222;BME280;22266;52.340;4.962;2023-04-20T07:36:43;102074.91;;;8.08;59.85
36222;BME280;22266;52.340;4.962;2023-04-20T07:39:10;102082.00;;;7.99;60.48
36222;BME280;22266;52.340;4.962;2023-04-20T07:41:36;102084.00;;;7.87;62.25
36222;BME280;22266;52.340;4.962;2023-04-20T07:44:03;102084.44;;;7.83;62.47
36222;BME280;22266;52.340;4.962;2023-04-20T07:46:29;102083.88;;;7.79;63.59
36222;BME280;22266;52.340;4.962;2023-04-20T07:48:56;102073.16;;;7.79;64.06
36222;BME280;22266;52.340;4.962;2023-04-20T07:51:22;102075.44;;;7.74;65.62
36222;BME280;22266;52.340;4.962;2023-04-20T07:53:48;102078.00;;;7.66;66.29
36222;BME280;22266;52.340;4.962;2023-04-20T07:56:15;102070.25;;;7.63;68.04
36222;BME280;22266;52.340;4.962;2023-04-20T07:58:41;102064.34;;;7.59;67.81
36222;BME280;22266;52.340;4.962;2023-04-20T08:01:09;102064.19;;;7.61;67.79
36222;BME280;22266;52.340;4.962;2023-04-20T08:03:36;102072.66;;;7.56;69.19
36222;BME280;22266;52.340;4.962;2023-04-20T08:06:03;102074.78;;;7.62;69.40
36222;BME280;22266;52.340;4.962;2023-04-20T08:08:29;102078.72;;;7.58;69.00
36222;BME280;22266;52.340;4.962;2023-04-20T08:10:56;102073.66;;;7.55;69.77
36222;BME280;22266;52.340;4.962;2023-04-20T08:13:23;102085.34;;;7.44;69.02
36222;BME280;22266;52.340;4.962;2023-04-20T08:15:50;102076.09;;;7.29;69.71
36222;BME280;22266;52.340;4.962;2023-04-20T08:18:16;102092.72;;;7.13;69.62
36222;BME280;22266;52.340;4.962;2023-04-20T08:20:45;102086.09;;;7.08;69.69
36222;BME280;22266;52.340;4.962;2023-04-20T08:23:12;102081.47;;;7.10;70.68
36222;BME280;22266;52.340;4.962;2023-04-20T08:25:39;102080.31;;;7.03;70.74
36222;BME280;22266;52.340;4.962;2023-04-20T08:28:06;102061.59;;;7.03;70.36
36222;BME280;22266;52.340;4.962;2023-04-20T08:30:38;102065.09;;;7.03;70.32
36222;BME280;22266;52.340;4.962;2023-04-20T08:33:06;102052.81;;;7.01;70.47
36222;BME280;22266;52.340;4.962;2023-04-20T08:35:32;102056.06;;;7.04;70.17
36222;BME280;22266;52.340;4.962;2023-04-20T08:37:59;102040.16;;;7.03;70.95
36222;BME280;22266;52.340;4.962;2023-04-20T08:40:25;102042.84;;;7.03;71.56
36222;BME280;22266;52.340;4.962;2023-04-20T08:42:53;102048.19;;;7.12;71.25
36222;BME280;22266;52.340;4.962;2023-04-20T08:45:19;102038.31;;;7.13;70.65
36222;BME280;22266;52.340;4.962;2023-04-20T08:47:46;102041.44;;;7.18;71.09
36222;BME280;22266;52.340;4.962;2023-04-20T08:50:14;102033.66;;;7.15;71.24
36222;BME280;22266;52.340;4.962;2023-04-20T08:52:41;102040.59;;;7.17;71.77
36222;BME280;22266;52.340;4.962;2023-04-20T08:55:07;102042.97;;;7.21;71.67
36222;BME280;22266;52.340;4.962;2023-04-20T08:57:34;102053.25;;;7.15;72.14
36222;BME280;22266;52.340;4.962;2023-04-20T09:00:03;102051.28;;;7.17;72.91
36222;BME280;22266;52.340;4.962;2023-04-20T09:02:30;102058.06;;;7.22;72.94
36222;BME280;22266;52.340;4.962;2023-04-20T09:05:02;102044.78;;;7.20;72.83
36222;BME280;22266;52.340;4.962;2023-04-20T09:07:29;102041.16;;;7.21;72.38
36222;BME280;22266;52.340;4.962;2023-04-20T09:09:58;102024.22;;;7.11;71.53
36222;BME280;22266;52.340;4.962;2023-04-20T09:12:25;102027.06;;;7.00;71.72
36222;BME280;22266;52.340;4.962;2023-04-20T09:14:52;102039.44;;;7.01;71.64
36222;BME280;22266;52.340;4.962;2023-04-20T09:17:33;102061.00;;;6.99;71.71
36222;BME280;22266;52.340;4.962;2023-04-20T09:20:00;102033.13;;;6.92;72.04
36222;BME280;22266;52.340;4.962;2023-04-20T09:22:36;102029.88;;;6.98;72.41
36222;BME280;22266;52.340;4.962;2023-04-20T09:25:16;102022.25;;;7.03;71.99
36222;BME280;22266;52.340;4.962;2023-04-20T09:27:54;102016.63;;;7.06;71.53
36222;BME280;22266;52.340;4.962;2023-04-20T09:30:21;102024.53;;;7.17;72.23
36222;BME280;22266;52.340;4.962;2023-04-20T09:32:48;102028.03;;;7.18;71.24
36222;BME280;22266;52.340;4.962;2023-04-20T09:35:23;102015.50;;;7.18;72.07
36222;BME280;22266;52.340;4.962;2023-04-20T09:37:50;102026.03;;;7.20;71.68
36222;BME280;22266;52.340;4.962;2023-04-20T09:40:17;102026.88;;;7.30;72.38
36222;BME280;22266;52.340;4.962;2023-04-20T09:42:47;102034.63;;;7.43;71.16
36222;BME280;22266;52.340;4.962;2023-04-20T09:45:14;102045.34;;;7.43;70.43
36222;BME280;22266;52.340;4.962;2023-04-20T09:47:41;102027.56;;;7.42;70.11
36222;BME280;22266;52.340;4.962;2023-04-20T09:50:10;102019.84;;;7.29;70.14
36222;BME280;22266;52.340;4.962;2023-04-20T09:52:52;102014.34;;;7.31;71.00
36222;BME280;22266;52.340;4.962;2023-04-20T09:55:19;102016.53;;;7.45;71.63
36222;BME280;22266;52.340;4.962;2023-04-20T09:57:48;102020.91;;;7.56;70.30
36222;BME280;22266;52.340;4.962;2023-04-20T10:00:15;102012.41;;;7.60;71.25
36222;BME280;22266;52.340;4.962;2023-04-20T10:02:45;102018.50;;;7.62;69.93
36222;BME280;22266;52.340;4.962;2023-04-20T10:05:12;102020.00;;;7.65;69.97
36222;BME280;22266;52.340;4.962;2023-04-20T10:07:39;102025.53;;;7.63;70.34
36222;BME280;22266;52.340;4.962;2023-04-20T10:10:13;102013.25;;;7.61;70.43
36222;BME280;22266;52.340;4.962;2023-04-20T10:12:54;101996.91;;;7.64;69.80
36222;BME280;22266;52.340;4.962;2023-04-20T10:15:22;102004.81;;;7.56;70.60
36222;BME280;22266;52.340;4.962;2023-04-20T10:17:49;102011.97;;;7.65;70.13
36222;BME280;22266;52.340;4.962;2023-04-20T10:20:17;102005.50;;;7.67;69.88
36222;BME280;22266;52.340;4.962;2023-04-20T10:22:44;102003.47;;;7.79;69.45
36222;BME280;22266;52.340;4.962;2023-04-20T10:25:21;101998.22;;;7.87;69.91
36222;BME280;22266;52.340;4.962;2023-04-20T10:28:06;101991.97;;;7.97;70.05
36222;BME280;22266;52.340;4.962;2023-04-20T10:30:36;101986.75;;;7.95;68.52
36222;BME280;22266;52.340;4.962;2023-04-20T10:33:10;101983.88;;;8.06;69.33
36222;BME280;22266;52.340;4.962;2023-04-20T10:35:46;101986.78;;;8.13;68.06
36222;BME280;22266;52.340;4.962;2023-04-20T10:38:13;101992.03;;;8.32;68.57
36222;BME280;22266;52.340;4.962;2023-04-20T10:40:39;101992.63;;;8.54;68.67
36222;BME280;22266;52.340;4.962;2023-04-20T10:43:19;101988.25;;;8.71;68.01
36222;BME280;22266;52.340;4.962;2023-04-20T10:45:47;101982.34;;;8.85;67.96
36222;BME280;22266;52.340;4.962;2023-04-20T10:48:14;101986.03;;;8.84;67.43
36222;BME280;22266;52.340;4.962;2023-04-20T10:50:43;101983.47;;;8.82;66.57
36222;BME280;22266;52.340;4.962;2023-04-20T10:53:17;101987.47;;;8.78;66.32
36222;BME280;22266;52.340;4.962;2023-04-20T10:55:44;101979.06;;;8.73;65.96
36222;BME280;22266;52.340;4.962;2023-04-20T10:58:24;101992.53;;;8.81;66.43
36222;BME280;22266;52.340;4.962;2023-04-20T11:01:01;101980.66;;;8.84;67.15
36222;BME280;22266;52.340;4.962;2023-04-20T11:03:29;101975.03;;;8.95;65.96
36222;BME280;22266;52.340;4.962;2023-04-20T11:05:57;101961.84;;;9.02;65.73
36222;BME280;22266;52.340;4.962;2023-04-20T11:08:40;101971.06;;;9.25;65.44
36222;BME280;22266;52.340;4.962;2023-04-20T11:11:23;101962.88;;;9.35;65.26
36222;BME280;22266;52.340;4.962;2023-04-20T11:13:50;101960.94;;;9.45;65.38
36222;BME280;22266;52.340;4.962;2023-04-20T11:16:18;101977.47;;;9.58;63.84
36222;BME280;22266;52.340;4.962;2023-04-20T11:18:52;101959.41;;;9.43;63.91
36222;BME280;22266;52.340;4.962;2023-04-20T11:21:20;101959.22;;;9.36;65.25
36222;BME280;22266;52.340;4.962;2023-04-20T11:23:48;101961.84;;;9.28;65.47
36222;BME280;22266;52.340;4.962;2023-04-20T11:26:15;101952.63;;;9.30;65.14
36222;BME280;22266;52.340;4.962;2023-04-20T11:28:52;101950.69;;;9.40;65.06
36222;BME280;22266;52.340;4.962;2023-04-20T11:31:21;101951.31;;;9.34;65.27
36222;BME280;22266;52.340;4.962;2023-04-20T11:33:48;101932.88;;;9.48;65.75
36222;BME280;22266;52.340;4.962;2023-04-20T11:36:20;101935.50;;;9.65;65.82
36222;BME280;22266;52.340;4.962;2023-04-20T11:38:47;101929.88;;;9.85;65.00
36222;BME280;22266;52.340;4.962;2023-04-20T11:41:15;101924.91;;;10.06;64.74
36222;BME280;22266;52.340;4.962;2023-04-20T11:43:42;101937.47;;;9.89;62.52
36222;BME280;22266;52.340;4.962;2023-04-20T11:46:16;101929.81;;;9.69;63.41
36222;BME280;22266;52.340;4.962;2023-04-20T11:48:43;101925.28;;;9.69;64.68
36222;BME280;22266;52.340;4.962;2023-04-20T11:51:10;101925.28;;;9.69;64.42
36222;BME280;22266;52.340;4.962;2023-04-20T11:53:37;101920.22;;;9.66;63.56
36222;BME280;22266;52.340;4.962;2023-04-20T11:56:04;101910.31;;;9.66;64.44
36222;BME280;22266;52.340;4.962;2023-04-20T11:58:30;101907.84;;;9.81;63.94
36222;BME280;22266;52.340;4.962;2023-04-20T12:00:57;101902.34;;;9.99;63.65
36222;BME280;22266;52.340;4.962;2023-04-20T12:03:25;101910.44;;;10.07;62.37
36222;BME280;22266;52.340;4.962;2023-04-20T12:05:52;101899.84;;;10.14;63.21
36222;BME280;22266;52.340;4.962;2023-04-20T12:08:19;101902.50;;;9.98;63.45
36222;BME280;22266;52.340;4.962;2023-04-20T12:10:45;101903.34;;;9.90;63.04
36222;BME280;22266;52.340;4.962;2023-04-20T12:13:12;101905.00;;;9.91;64.27
36222;BME280;22266;52.340;4.962;2023-04-20T12:15:38;101899.97;;;9.96;63.41
36222;BME280;22266;52.340;4.962;2023-04-20T12:18:05;101917.44;;;9.92;63.26
36222;BME280;22266;52.340;4.962;2023-04-20T12:20:32;101917.91;;;9.79;63.57
36222;BME280;22266;52.340;4.962;2023-04-20T12:22:58;101898.56;;;9.76;64.24
36222;BME280;22266;52.340;4.962;2023-04-20T12:25:27;101905.28;;;9.72;64.34
36222;BME280;22266;52.340;4.962;2023-04-20T12:27:53;101904.72;;;9.60;64.17
36222;BME280;22266;52.340;4.962;2023-04-20T12:30:20;101904.03;;;9.50;64.62
36222;BME280;22266;52.340;4.962;2023-04-20T12:32:46;101899.13;;;9.45;65.42
36222;BME280;22266;52.340;4.962;2023-04-20T12:35:12;101904.38;;;9.55;65.36
36222;BME280;22266;52.340;4.962;2023-04-20T12:37:39;101902.00;;;9.52;65.32
36222;BME280;22266;52.340;4.962;2023-04-20T12:40:06;101904.19;;;9.48;65.40
36222;BME280;22266;52.340;4.962;2023-04-20T12:42:33;101912.03;;;9.41;66.18
36222;BME280;22266;52.340;4.962;2023-04-20T12:44:59;101893.91;;;9.44;66.54
36222;BME280;22266;52.340;4.962;2023-04-20T12:47:27;101894.31;;;9.57;67.30
36222;BME280;22266;52.340;4.962;2023-04-20T12:49:53;101892.31;;;9.67;65.76
36222;BME280;22266;52.340;4.962;2023-04-20T12:52:20;101889.50;;;9.69;65.42
36222;BME280;22266;52.340;4.962;2023-04-20T12:54:46;101889.97;;;9.72;66.25
36222;BME280;22266;52.340;4.962;2023-04-20T12:57:13;101878.25;;;9.73;65.82
36222;BME280;22266;52.340;4.962;2023-04-20T12:59:39;101873.72;;;9.74;66.02
36222;BME280;22266;52.340;4.962;2023-04-20T13:02:06;101886.31;;;9.73;65.93
36222;BME280;22266;52.340;4.962;2023-04-20T13:04:32;101879.44;;;9.79;64.52
36222;BME280;22266;52.340;4.962;2023-04-20T13:07:01;101878.25;;;9.73;63.09